createdAt,value
2023-01-03T00:01:20.121Z,13.20
2023-01-03T00:06:31.923Z,11.82
2023-01-03T00:11:55.383Z,11.09
2023-01-03T00:16:59.979Z,12.88
2023-01-03T00:22:03.266Z,12.02
2023-01-03T00:27:06.447Z,11.46
2023-01-03T00:32:09.235Z,13.40
2023-01-03T00:37:13.553Z,12.77
2023-01-03T00:42:16.357Z,10.98
2023-01-03T00:47:19.103Z,11.06
2023-01-03T00:52:21.859Z,13.19
2023-01-03T00:57:24.648Z,12.60
2023-01-03T01:02:27.699Z,11.29
2023-01-03T01:07:30.749Z,12.97
2023-01-03T01:12:33.478Z,12.69
2023-01-03T01:17:36.274Z,11.59
2023-01-03T01:22:39.027Z,12.93
2023-01-03T01:27:41.800Z,11.60
2023-01-03T01:32:44.569Z,11.63
2023-01-03T01:37:47.312Z,13.21
2023-01-03T01:43:08.752Z,11.92
2023-01-03T01:48:14.428Z,11.22
2023-01-03T01:53:33.065Z,13.16
2023-01-03T01:58:38.152Z,12.50
2023-01-03T02:03:43.447Z,11.28
2023-01-03T02:08:46.279Z,12.73
2023-01-03T02:14:01.096Z,12.20
2023-01-03T02:19:31.728Z,11.61
2023-01-03T02:24:40.196Z,12.99
2023-01-03T02:30:10.882Z,11.53
2023-01-03T02:35:36.644Z,11.29
2023-01-03T02:40:57.543Z,13.18
2023-01-03T02:46:06.024Z,11.70
2023-01-03T02:51:35.480Z,10.75
2023-01-03T02:56:52.528Z,12.68
2023-01-03T03:01:55.705Z,13.06
2023-01-03T03:07:04.477Z,11.48
2023-01-03T03:12:26.312Z,12.97
2023-01-03T03:17:30.977Z,11.92
2023-01-03T03:22:55.776Z,10.52
2023-01-03T03:28:21.952Z,11.67
2023-01-03T03:33:28.758Z,12.67
2023-01-03T03:38:41.687Z,10.87
2023-01-03T03:44:10.828Z,11.16
2023-01-03T03:49:39.080Z,12.48
2023-01-03T03:54:47.269Z,10.64
2023-01-03T03:59:55.149Z,10.98
2023-01-03T04:05:03.284Z,11.93
2023-01-03T04:10:06.982Z,10.44
2023-01-03T04:15:10.103Z,11.57
2023-01-03T04:20:14.000Z,11.08
2023-01-03T04:25:16.811Z,9.74
2023-01-03T04:30:19.684Z,11.46
2023-01-03T04:35:22.420Z,11.01
2023-01-03T04:40:25.506Z,9.99
2023-01-03T04:45:28.303Z,11.68
2023-01-03T04:50:32.492Z,10.96
2023-01-03T04:55:35.202Z,10.41
2023-01-03T05:00:37.982Z,11.71
2023-01-03T05:05:41.434Z,9.96
2023-01-03T05:10:44.203Z,10.05
2023-01-03T05:15:46.985Z,11.05
2023-01-03T05:21:08.419Z,9.31
2023-01-03T05:26:16.390Z,9.81
2023-01-03T05:31:20.246Z,10.86
2023-01-03T05:36:23.164Z,9.10
2023-01-03T05:41:44.761Z,9.61
2023-01-03T05:46:47.546Z,10.50
2023-01-03T05:51:50.432Z,8.89
2023-01-03T05:56:53.734Z,9.04
2023-01-03T06:01:56.694Z,11.06
2023-01-03T06:06:59.781Z,9.85
2023-01-03T06:12:02.699Z,8.90
2023-01-03T06:17:24.413Z,10.94
2023-01-03T06:22:27.315Z,10.60
2023-01-03T06:27:30.311Z,9.03
2023-01-03T06:32:34.612Z,10.40
2023-01-03T06:37:37.408Z,10.60
2023-01-03T06:42:40.239Z,8.69
2023-01-03T06:48:01.842Z,9.21
2023-01-03T06:53:13.906Z,10.44
2023-01-03T06:58:16.764Z,8.72
2023-01-03T07:03:21.673Z,9.47
2023-01-03T07:08:30.413Z,9.96
2023-01-03T07:13:52.065Z,8.23
2023-01-03T07:18:55.899Z,8.79
2023-01-03T07:24:02.418Z,10.55
2023-01-03T07:29:13.262Z,9.00
2023-01-03T07:34:16.669Z,9.75
2023-01-03T07:39:19.587Z,9.95
2023-01-03T07:44:22.671Z,8.51
2023-01-03T07:49:25.821Z,8.91
2023-01-03T07:54:28.634Z,10.36
2023-01-03T07:59:31.494Z,8.93
2023-01-03T08:04:34.744Z,8.58
2023-01-03T08:09:56.248Z,10.61
2023-01-03T08:14:59.594Z,10.23
2023-01-03T08:20:02.350Z,9.74
2023-01-03T08:25:05.783Z,9.07
2023-01-03T08:30:09.329Z,10.27
2023-01-03T08:35:12.162Z,10.89
2023-01-03T08:40:17.871Z,9.60
2023-01-03T08:45:21.940Z,9.27
2023-01-03T08:50:26.548Z,10.35
2023-01-03T08:55:29.434Z,10.53
2023-01-03T09:00:32.274Z,9.33
2023-01-03T09:05:35.219Z,8.66
2023-01-03T09:10:47.473Z,9.47
2023-01-03T09:15:51.372Z,10.32
2023-01-03T09:21:07.816Z,9.19
2023-01-03T09:26:24.572Z,8.60
2023-01-03T09:31:36.297Z,9.68
2023-01-03T09:36:40.547Z,10.03
2023-01-03T09:41:43.969Z,8.80
2023-01-03T09:46:46.985Z,8.20
2023-01-03T09:52:10.650Z,7.97
2023-01-03T09:57:38.844Z,9.14
2023-01-03T10:03:17.227Z,10.24
2023-01-03T10:09:05.345Z,9.23
2023-01-03T10:14:40.326Z,8.61
2023-01-03T10:19:51.369Z,8.19
2023-01-03T10:25:04.171Z,7.88
2023-01-03T10:30:15.246Z,7.74
2023-01-03T10:35:37.331Z,7.64
2023-01-03T10:40:55.200Z,7.66
2023-01-03T10:46:04.206Z,7.80
2023-01-03T10:51:42.607Z,7.81
2023-01-03T11:02:19.342Z,10.40
2023-01-03T11:07:34.788Z,10.09
2023-01-03T11:12:40.528Z,9.16
2023-01-03T11:18:00.750Z,8.65
2023-01-03T11:23:13.292Z,8.36
2023-01-03T11:28:18.997Z,8.16
2023-01-03T11:33:30.460Z,8.04
2023-01-03T11:38:55.484Z,7.98
2023-01-03T11:44:22.632Z,7.91
2023-01-03T11:49:43.633Z,7.85
2023-01-03T11:55:23.967Z,7.83
2023-01-03T12:00:37.038Z,7.92
2023-01-03T12:05:48.230Z,9.58
2023-01-03T12:11:43.273Z,9.06
2023-01-03T12:17:16.724Z,8.37
2023-01-03T12:22:26.760Z,8.03
2023-01-03T12:27:47.087Z,7.89
2023-01-03T12:32:55.261Z,7.69
2023-01-03T12:37:58.815Z,7.56
2023-01-03T12:43:16.937Z,8.66
2023-01-03T12:48:37.831Z,10.53
2023-01-03T12:53:50.614Z,9.27
2023-01-03T12:58:59.921Z,8.47
2023-01-03T13:04:10.778Z,8.01
2023-01-03T13:09:27.214Z,9.53
2023-01-03T13:15:02.737Z,9.72
2023-01-03T13:20:14.876Z,8.44
2023-01-03T13:25:32.515Z,7.91
2023-01-03T13:30:38.604Z,9.91
2023-01-03T13:35:44.355Z,10.90
2023-01-03T13:41:17.234Z,9.26
2023-01-03T13:46:22.406Z,8.44
2023-01-03T13:51:41.048Z,10.58
2023-01-03T13:56:43.892Z,10.97
2023-01-03T14:02:37.848Z,9.12
2023-01-03T14:07:59.965Z,9.07
2023-01-03T14:13:11.597Z,10.56
2023-01-03T14:18:14.784Z,9.02
2023-01-03T14:23:58.410Z,8.97
2023-01-03T14:28:49.876Z,10.02
2023-01-03T14:33:59.451Z,8.54
2023-01-03T14:39:02.314Z,9.80
2023-01-03T14:44:11.163Z,10.74
2023-01-03T14:49:48.055Z,8.92
2023-01-03T14:54:57.224Z,8.97
2023-01-03T15:00:04.014Z,10.31
2023-01-03T15:05:25.176Z,8.76
2023-01-03T15:10:45.433Z,7.62
2023-01-03T15:15:55.387Z,8.60
2023-01-03T15:21:00.378Z,10.08
2023-01-03T15:26:05.206Z,8.51
2023-01-03T15:31:22.907Z,7.58
2023-01-03T15:36:30.179Z,9.17
2023-01-03T15:42:12.371Z,8.76
2023-01-03T15:47:22.107Z,7.42
2023-01-03T15:52:25.717Z,8.91
2023-01-03T15:57:30.556Z,9.93
2023-01-03T16:02:33.766Z,8.19
2023-01-03T16:07:36.839Z,7.26
2023-01-03T16:12:43.784Z,8.79
2023-01-03T16:17:46.489Z,9.81
2023-01-03T16:23:00.592Z,8.16
2023-01-03T16:28:10.193Z,7.97
2023-01-03T16:33:21.362Z,9.33
2023-01-03T16:38:25.821Z,7.92
2023-01-03T16:43:29.424Z,8.64
2023-01-03T16:48:39.060Z,9.10
2023-01-03T16:53:41.806Z,7.72
2023-01-03T16:58:45.034Z,9.21
2023-01-03T17:03:48.779Z,8.86
2023-01-03T17:08:52.025Z,7.61
2023-01-03T17:14:04.261Z,8.23
2023-01-03T17:20:01.906Z,9.61
2023-01-03T17:24:46.345Z,7.95
2023-01-03T17:29:51.388Z,9.31
2023-01-03T17:34:54.187Z,9.15
2023-01-03T17:40:00.245Z,7.66
2023-01-03T17:45:24.282Z,8.43
2023-01-03T17:50:29.939Z,10.18
2023-01-03T17:55:32.823Z,8.57
2023-01-03T18:00:36.474Z,7.51
2023-01-03T18:05:39.547Z,9.39
2023-01-03T18:10:47.255Z,9.72
2023-01-03T18:15:51.453Z,7.85
2023-01-03T18:20:57.779Z,8.18
2023-01-03T18:26:07.043Z,9.46
2023-01-03T18:31:15.525Z,7.78
2023-01-03T18:36:27.218Z,8.21
2023-01-03T18:41:32.133Z,9.42
2023-01-03T18:46:35.088Z,7.72
2023-01-03T18:51:38.013Z,7.94
2023-01-03T18:56:44.231Z,9.65
2023-01-03T19:01:50.240Z,8.03
2023-01-03T19:06:53.866Z,7.11
2023-01-03T19:11:57.573Z,8.96
2023-01-03T19:17:00.367Z,9.10
2023-01-03T19:22:16.498Z,7.59
2023-01-03T19:27:24.171Z,8.34
2023-01-03T19:32:29.940Z,9.41
2023-01-03T19:37:33.387Z,7.78
2023-01-03T19:42:52.608Z,8.17
2023-01-03T19:47:57.282Z,9.78
2023-01-03T19:53:04.034Z,8.20
2023-01-03T19:58:37.413Z,7.16
2023-01-03T20:03:40.946Z,9.13
2023-01-03T20:08:44.081Z,9.73
2023-01-03T20:13:47.463Z,8.01
2023-01-03T20:18:50.248Z,8.88
2023-01-03T20:23:56.637Z,9.37
2023-01-03T20:29:00.563Z,8.16
2023-01-03T20:34:06.767Z,10.05
2023-01-03T20:39:22.831Z,10.70
2023-01-03T20:44:26.824Z,8.59
2023-01-03T20:49:29.717Z,8.31
2023-01-03T20:54:32.508Z,10.50
2023-01-03T20:59:35.270Z,10.31
2023-01-03T21:04:39.328Z,8.24
2023-01-03T21:09:42.124Z,9.00
2023-01-03T21:14:45.713Z,10.66
2023-01-03T21:19:50.844Z,9.14
2023-01-03T21:24:57.498Z,8.27
2023-01-03T21:30:00.972Z,10.07
2023-01-03T21:35:04.073Z,8.98
2023-01-03T21:40:14.964Z,8.10
2023-01-03T21:45:17.898Z,10.03
2023-01-03T21:50:22.448Z,9.15
2023-01-03T21:55:26.340Z,8.00
2023-01-03T22:00:29.099Z,9.97
2023-01-03T22:05:32.234Z,9.51
2023-01-03T22:10:37.112Z,7.55
2023-01-03T22:15:39.948Z,9.09
2023-01-03T22:20:42.813Z,9.50
2023-01-03T22:25:45.680Z,7.68
2023-01-03T22:30:49.311Z,9.12
2023-01-03T22:35:52.172Z,10.01
2023-01-03T22:40:55.039Z,8.03
2023-01-03T22:45:57.878Z,7.55
2023-01-03T22:51:05.791Z,9.74
2023-01-03T22:56:11.657Z,8.94
2023-01-03T23:01:17.939Z,7.42
2023-01-03T23:06:21.712Z,9.22
2023-01-03T23:11:45.706Z,9.30
2023-01-03T23:16:51.252Z,7.30
2023-01-03T23:21:54.559Z,8.82
2023-01-03T23:26:57.288Z,9.24
2023-01-03T23:32:00.665Z,7.10
2023-01-03T23:37:03.496Z,7.27
2023-01-03T23:42:06.536Z,9.31
2023-01-03T23:47:11.919Z,8.79
2023-01-03T23:52:15.433Z,7.08
2023-01-03T23:57:18.228Z,8.74
